createdAt,value
2024-02-14T00:00:14.757Z,76.90
2024-02-14T00:02:50.487Z,76.67
2024-02-14T00:05:19.157Z,76.45
2024-02-14T00:07:47.244Z,76.28
2024-02-14T00:10:15.168Z,76.28
2024-02-14T00:12:43.260Z,75.45
2024-02-14T00:15:12.098Z,75.05
2024-02-14T00:18:10.358Z,74.89
2024-02-14T00:20:38.657Z,74.88
2024-02-14T00:23:06.616Z,75.26
2024-02-14T00:25:34.591Z,75.61
2024-02-14T00:28:02.689Z,76.99
2024-02-14T00:30:31.205Z,77.03
2024-02-14T00:32:59.696Z,78.11
2024-02-14T00:35:29.252Z,77.81
2024-02-14T00:37:57.322Z,77.71
2024-02-14T00:40:25.323Z,78.18
2024-02-14T00:42:53.387Z,77.86
2024-02-14T00:45:21.304Z,76.52
2024-02-14T00:47:49.504Z,76.01
2024-02-14T00:50:17.690Z,76.12
2024-02-14T00:52:47.021Z,75.58
2024-02-14T00:55:15.348Z,75.44
2024-02-14T00:57:45.984Z,74.92
2024-02-14T01:00:14.445Z,75.33
2024-02-14T01:02:42.762Z,75.03
2024-02-14T01:05:11.008Z,75.05
2024-02-14T01:07:39.035Z,74.90
2024-02-14T01:10:09.108Z,74.85
2024-02-14T01:12:37.111Z,75.26
2024-02-14T01:15:06.091Z,75.41
2024-02-14T01:17:37.111Z,75.91
2024-02-14T01:20:05.925Z,76.92
2024-02-14T01:22:33.863Z,78.21
2024-02-14T01:25:01.854Z,78.23
2024-02-14T01:27:31.188Z,77.77
2024-02-14T01:29:59.375Z,76.89
2024-02-14T01:32:29.191Z,76.83
2024-02-14T01:34:57.530Z,76.38
2024-02-14T01:37:25.718Z,76.64
2024-02-14T01:39:53.688Z,75.97
2024-02-14T01:42:21.699Z,76.15
2024-02-14T01:44:52.013Z,76.49
2024-02-14T01:47:20.741Z,75.80
2024-02-14T01:49:49.446Z,75.90
2024-02-14T01:52:17.634Z,75.78
2024-02-14T01:54:45.772Z,76.36
2024-02-14T01:57:13.956Z,75.90
2024-02-14T01:59:41.981Z,75.44
2024-02-14T02:02:11.364Z,75.66
2024-02-14T02:04:39.750Z,76.10
2024-02-14T02:07:08.612Z,76.51
2024-02-14T02:09:36.687Z,76.25
2024-02-14T02:12:06.529Z,75.76
2024-02-14T02:14:34.780Z,75.85
2024-02-14T02:17:03.085Z,75.37
2024-02-14T02:19:34.158Z,75.51
2024-02-14T02:22:02.158Z,75.19
2024-02-14T02:24:31.688Z,75.38
2024-02-14T02:26:59.724Z,75.05
2024-02-14T02:29:27.817Z,75.29
2024-02-14T02:31:55.766Z,74.93
2024-02-14T02:34:24.105Z,74.57
2024-02-14T02:36:52.731Z,74.64
2024-02-14T02:39:20.692Z,74.24
2024-02-14T02:41:51.319Z,74.54
2024-02-14T02:44:19.380Z,74.06
2024-02-14T02:46:47.366Z,74.26
2024-02-14T02:49:16.141Z,74.38
2024-02-14T02:51:44.093Z,74.51
2024-02-14T02:54:12.488Z,74.33
2024-02-14T02:56:42.037Z,74.66
2024-02-14T02:59:11.540Z,75.51
2024-02-14T03:01:39.510Z,75.50
2024-02-14T03:04:08.215Z,75.28
2024-02-14T03:06:36.329Z,75.81
2024-02-14T03:09:04.419Z,75.09
2024-02-14T03:11:32.444Z,74.58
2024-02-14T03:14:00.801Z,74.41
2024-02-14T03:16:30.711Z,74.66
2024-02-14T03:19:00.087Z,74.27
2024-02-14T03:21:28.726Z,74.25
2024-02-14T03:23:56.625Z,74.33
2024-02-14T03:26:24.749Z,74.63
2024-02-14T03:28:53.723Z,75.52
2024-02-14T03:31:21.751Z,75.29
2024-02-14T03:33:51.160Z,74.71
2024-02-14T03:36:19.558Z,75.16
2024-02-14T03:38:48.505Z,74.93
2024-02-14T03:41:16.358Z,75.14
2024-02-14T03:43:44.614Z,76.41
2024-02-14T03:46:14.072Z,77.59
2024-02-14T03:48:43.056Z,76.71
2024-02-14T03:51:13.025Z,76.85
2024-02-14T03:53:43.205Z,76.83
2024-02-14T03:56:11.163Z,76.61
2024-02-14T03:58:39.234Z,75.52
2024-02-14T04:01:07.472Z,75.29
2024-02-14T04:03:35.477Z,75.22
2024-02-14T04:06:03.617Z,75.32
2024-02-14T04:08:34.516Z,74.85
2024-02-14T04:11:02.554Z,74.63
2024-02-14T04:13:30.529Z,75.54
2024-02-14T04:15:58.644Z,76.05
2024-02-14T04:18:26.918Z,75.02
2024-02-14T04:20:55.142Z,74.65
2024-02-14T04:23:23.661Z,74.28
2024-02-14T04:25:53.231Z,74.98
2024-02-14T04:28:21.201Z,74.25
2024-02-14T04:30:49.467Z,74.72
2024-02-14T04:33:19.059Z,74.13
2024-02-14T04:35:47.262Z,74.11
2024-02-14T04:38:15.355Z,73.84
2024-02-14T04:40:43.555Z,73.90
2024-02-14T04:43:13.426Z,74.25
2024-02-14T04:45:41.489Z,73.96
2024-02-14T04:48:10.106Z,73.31
2024-02-14T04:50:38.416Z,73.00
2024-02-14T04:53:06.674Z,72.85
2024-02-14T04:55:34.953Z,72.35
2024-02-14T04:58:03.025Z,72.35
2024-02-14T05:00:32.632Z,72.27
2024-02-14T05:03:01.009Z,72.46
2024-02-14T05:05:29.449Z,72.11
2024-02-14T05:07:57.682Z,72.66
2024-02-14T05:10:25.834Z,72.58
2024-02-14T05:12:53.933Z,72.25
2024-02-14T05:15:22.260Z,72.40
2024-02-14T05:17:52.165Z,72.14
2024-02-14T05:20:20.355Z,72.65
2024-02-14T05:22:48.667Z,73.01
2024-02-14T05:25:16.797Z,72.65
2024-02-14T05:27:48.160Z,72.31
2024-02-14T05:30:16.528Z,71.94
2024-02-14T05:32:44.740Z,71.66
2024-02-14T05:35:14.300Z,71.96
2024-02-14T05:37:42.395Z,71.82
2024-02-14T05:40:10.978Z,71.65
2024-02-14T05:42:39.070Z,71.69
2024-02-14T05:45:10.883Z,71.55
2024-02-14T05:47:39.238Z,71.29
2024-02-14T05:50:10.276Z,71.12
2024-02-14T05:52:40.281Z,71.27
2024-02-14T05:55:10.286Z,70.91
2024-02-14T05:57:38.524Z,71.06
2024-02-14T06:00:12.263Z,71.23
2024-02-14T06:02:41.076Z,71.17
2024-02-14T06:05:10.744Z,71.29
2024-02-14T06:07:41.437Z,71.08
2024-02-14T06:10:10.481Z,71.16
2024-02-14T06:12:40.325Z,70.99
2024-02-14T06:15:10.044Z,71.16
2024-02-14T06:17:38.314Z,71.03
2024-02-14T06:20:09.272Z,71.20
2024-02-14T06:22:44.664Z,71.16
2024-02-14T06:25:19.433Z,70.91
2024-02-14T06:27:47.491Z,71.07
2024-02-14T06:30:15.904Z,71.63
2024-02-14T06:32:44.221Z,70.94
2024-02-14T06:35:12.878Z,70.93
2024-02-14T06:37:59.567Z,71.01
2024-02-14T06:40:33.850Z,70.84
2024-02-14T06:43:02.331Z,70.76
2024-02-14T06:45:31.204Z,70.79
2024-02-14T06:47:59.480Z,71.03
2024-02-14T06:50:28.907Z,70.87
2024-02-14T06:53:00.654Z,70.99
2024-02-14T06:55:30.510Z,70.92
2024-02-14T06:58:00.379Z,70.84
2024-02-14T07:00:29.989Z,70.58
2024-02-14T07:02:58.863Z,70.14
2024-02-14T07:05:27.511Z,69.91
2024-02-14T07:07:55.786Z,69.98
2024-02-14T07:10:24.002Z,70.12
2024-02-14T07:12:52.109Z,70.08
2024-02-14T07:15:21.930Z,69.71
2024-02-14T07:17:50.244Z,69.84
2024-02-14T07:20:19.248Z,69.53
2024-02-14T07:22:48.928Z,69.04
2024-02-14T07:25:17.128Z,69.07
2024-02-14T07:27:50.846Z,68.45
2024-02-14T07:30:19.523Z,68.92
2024-02-14T07:32:49.235Z,68.87
2024-02-14T07:35:17.898Z,70.30
2024-02-14T07:37:45.899Z,69.69
2024-02-14T07:40:16.076Z,69.60
2024-02-14T07:42:45.394Z,69.01
2024-02-14T07:45:13.973Z,69.30
2024-02-14T07:47:42.409Z,69.05
2024-02-14T07:50:12.240Z,69.24
2024-02-14T07:52:43.938Z,69.54
2024-02-14T07:55:13.578Z,68.24
2024-02-14T07:57:41.676Z,69.37
2024-02-14T08:00:11.380Z,69.12
2024-02-14T08:02:39.590Z,68.55
2024-02-14T08:05:09.956Z,68.48
2024-02-14T08:07:39.328Z,68.87
2024-02-14T08:10:07.893Z,68.28
2024-02-14T08:12:35.817Z,68.81
2024-02-14T08:15:05.748Z,68.68
2024-02-14T08:17:34.700Z,68.63
2024-02-14T08:20:05.201Z,67.73
2024-02-14T08:22:33.599Z,68.43
2024-02-14T08:25:04.429Z,68.55
2024-02-14T08:27:32.801Z,67.90
2024-02-14T08:30:05.570Z,67.67
2024-02-14T08:32:38.908Z,67.55
2024-02-14T08:35:08.793Z,67.40
2024-02-14T08:37:38.072Z,67.12
2024-02-14T08:40:09.346Z,66.72
2024-02-14T08:42:38.502Z,66.99
2024-02-14T08:45:07.350Z,67.10
2024-02-14T08:47:36.201Z,66.84
2024-02-14T08:50:05.520Z,65.87
2024-02-14T08:52:36.431Z,65.11
2024-02-14T08:55:04.795Z,64.60
2024-02-14T08:57:34.670Z,64.29
2024-02-14T09:00:05.648Z,63.92
2024-02-14T09:02:33.779Z,63.22
2024-02-14T09:05:10.748Z,62.80
2024-02-14T09:07:38.888Z,63.09
2024-02-14T09:10:27.409Z,62.38
2024-02-14T09:13:03.399Z,62.47
2024-02-14T09:15:32.141Z,62.32
2024-02-14T09:18:01.308Z,63.07
2024-02-14T09:20:30.012Z,63.72
2024-02-14T09:23:00.310Z,63.65
2024-02-14T09:25:28.385Z,62.70
2024-02-14T09:27:56.282Z,63.03
2024-02-14T09:30:34.589Z,62.91
2024-02-14T09:33:06.829Z,63.51
2024-02-14T09:35:36.605Z,62.46
2024-02-14T09:38:10.062Z,62.64
2024-02-14T09:40:45.271Z,60.66
2024-02-14T09:43:35.915Z,61.16
2024-02-14T09:46:05.958Z,61.35
2024-02-14T09:48:35.991Z,61.41
2024-02-14T09:51:15.384Z,60.59
2024-02-14T09:53:45.223Z,60.47
2024-02-14T09:56:18.225Z,59.73
2024-02-14T09:58:51.451Z,60.34
2024-02-14T10:01:22.114Z,59.82
2024-02-14T10:03:50.790Z,60.07
2024-02-14T10:06:21.308Z,59.67
2024-02-14T10:08:58.486Z,59.37
2024-02-14T10:11:33.281Z,58.52
2024-02-14T10:14:04.815Z,58.25
2024-02-14T10:16:35.435Z,58.15
2024-02-14T10:19:05.094Z,58.10
2024-02-14T10:21:34.648Z,57.15
2024-02-14T10:24:04.849Z,57.26
2024-02-14T10:26:33.201Z,56.19
2024-02-14T10:29:01.683Z,57.02
2024-02-14T10:31:29.959Z,56.18
2024-02-14T10:34:00.992Z,56.45
2024-02-14T10:36:29.206Z,55.59
2024-02-14T10:38:59.432Z,54.41
2024-02-14T10:41:37.981Z,54.83
2024-02-14T10:44:07.743Z,55.28
2024-02-14T10:46:39.619Z,55.49
2024-02-14T10:49:12.944Z,55.72
2024-02-14T10:51:42.888Z,55.57
2024-02-14T10:54:13.668Z,55.28
2024-02-14T10:56:44.395Z,56.40
2024-02-14T10:59:15.516Z,56.90
2024-02-14T11:01:44.595Z,57.08
2024-02-14T11:04:14.542Z,56.27
2024-02-14T11:06:49.610Z,57.13
2024-02-14T11:09:17.588Z,56.59
2024-02-14T11:11:46.302Z,57.03
2024-02-14T11:14:17.982Z,57.49
2024-02-14T11:16:54.632Z,57.84
2024-02-14T11:19:34.921Z,57.37
2024-02-14T11:22:14.368Z,58.05
2024-02-14T11:24:42.611Z,58.50
2024-02-14T11:27:29.289Z,59.33
2024-02-14T11:30:04.611Z,59.31
2024-02-14T11:36:46.809Z,60.05
2024-02-14T11:39:15.416Z,60.81
2024-02-14T11:41:43.768Z,61.31
2024-02-14T11:44:12.970Z,61.25
2024-02-14T11:46:42.174Z,61.16
2024-02-14T11:49:11.002Z,61.23
2024-02-14T11:51:39.760Z,61.37
2024-02-14T11:54:09.945Z,60.75
2024-02-14T11:56:39.666Z,61.15
2024-02-14T11:59:11.570Z,61.11
2024-02-14T12:01:40.974Z,60.96
2024-02-14T12:04:10.799Z,60.87
2024-02-14T12:06:39.391Z,60.93
2024-02-14T12:09:10.649Z,60.16
2024-02-14T12:11:39.612Z,60.54
2024-02-14T12:14:09.177Z,60.35
2024-02-14T12:16:38.555Z,60.35
2024-02-14T12:19:12.023Z,59.77
2024-02-14T12:21:41.831Z,60.33
2024-02-14T12:24:12.209Z,61.99
2024-02-14T12:26:40.913Z,61.55
2024-02-14T12:29:10.251Z,61.02
2024-02-14T12:31:44.832Z,60.73
2024-02-14T12:34:25.099Z,59.42
2024-02-14T12:36:54.330Z,60.10
2024-02-14T12:39:24.208Z,59.85
2024-02-14T12:41:52.683Z,60.07
2024-02-14T12:44:20.673Z,60.39
2024-02-14T12:46:48.753Z,59.84
2024-02-14T12:49:16.821Z,60.44
2024-02-14T12:51:44.902Z,60.04
2024-02-14T12:54:16.188Z,57.79
2024-02-14T12:56:48.146Z,56.64
2024-02-14T12:59:20.090Z,56.38
2024-02-14T13:01:49.178Z,56.88
2024-02-14T13:04:18.019Z,56.81
2024-02-14T13:06:47.923Z,56.94
2024-02-14T13:09:17.120Z,56.64
2024-02-14T13:11:46.670Z,57.63
2024-02-14T13:14:15.997Z,56.96
2024-02-14T13:16:46.655Z,57.99
2024-02-14T13:19:17.447Z,57.46
2024-02-14T13:21:47.177Z,58.13
2024-02-14T13:24:15.293Z,57.65
2024-02-14T13:26:43.418Z,57.90
2024-02-14T13:29:12.797Z,57.92
2024-02-14T13:31:41.026Z,57.51
2024-02-14T13:34:09.987Z,57.48
2024-02-14T13:36:39.504Z,56.97
2024-02-14T13:39:08.960Z,57.81
2024-02-14T13:41:38.896Z,57.45
2024-02-14T13:44:08.717Z,57.74
2024-02-14T13:46:38.399Z,57.88
2024-02-14T13:49:08.083Z,58.08
2024-02-14T13:51:36.327Z,57.51
2024-02-14T13:54:04.741Z,58.05
2024-02-14T13:56:32.970Z,58.05
2024-02-14T13:59:01.196Z,58.09
2024-02-14T14:01:33.567Z,57.37
2024-02-14T14:04:07.731Z,57.03
2024-02-14T14:06:41.041Z,56.77
2024-02-14T14:09:11.770Z,57.66
2024-02-14T14:11:40.459Z,57.83
2024-02-14T14:14:17.102Z,58.34
2024-02-14T14:16:46.062Z,57.97
2024-02-14T14:19:15.625Z,57.38
2024-02-14T14:21:43.690Z,58.31
2024-02-14T14:24:11.828Z,58.01
2024-02-14T14:26:52.063Z,58.53
2024-02-14T14:29:28.367Z,59.00
2024-02-14T14:32:39.842Z,61.44
2024-02-14T14:35:13.902Z,62.84
2024-02-14T14:37:42.071Z,62.27
2024-02-14T14:40:11.843Z,61.84
2024-02-14T14:42:40.386Z,62.03
2024-02-14T14:45:09.951Z,61.88
2024-02-14T14:47:39.037Z,61.25
2024-02-14T14:50:08.547Z,61.17
2024-02-14T14:52:39.514Z,61.13
2024-02-14T14:55:08.109Z,60.95
2024-02-14T14:57:42.046Z,60.84
2024-02-14T15:00:23.073Z,60.23
2024-02-14T15:02:52.617Z,60.60
2024-02-14T15:05:20.631Z,60.92
2024-02-14T15:07:49.987Z,60.72
2024-02-14T15:10:18.129Z,60.56
2024-02-14T15:12:46.243Z,60.51
2024-02-14T15:15:15.497Z,60.35
2024-02-14T15:17:43.706Z,59.94
2024-02-14T15:20:12.919Z,60.25
2024-02-14T15:22:41.345Z,60.33
2024-02-14T15:25:11.216Z,60.61
2024-02-14T15:27:55.323Z,60.37
2024-02-14T15:30:42.050Z,60.98
2024-02-14T15:33:28.308Z,60.46
2024-02-14T15:35:57.923Z,60.46
2024-02-14T15:38:27.434Z,60.34
2024-02-14T15:40:58.756Z,60.35
2024-02-14T15:43:27.110Z,60.35
2024-02-14T15:45:55.893Z,60.82
2024-02-14T15:48:25.912Z,60.79
2024-02-14T15:50:54.223Z,61.27
2024-02-14T15:53:22.178Z,61.53
2024-02-14T15:55:52.295Z,61.18
2024-02-14T15:58:21.589Z,61.28
2024-02-14T16:00:51.817Z,61.57
2024-02-14T16:03:22.392Z,61.73
2024-02-14T16:05:50.747Z,61.56
2024-02-14T16:08:19.050Z,61.52
2024-02-14T16:10:48.671Z,61.66
2024-02-14T16:13:17.630Z,61.54
2024-02-14T16:15:47.193Z,61.34
2024-02-14T16:18:17.427Z,61.37
2024-02-14T16:20:45.730Z,61.74
2024-02-14T16:23:13.782Z,61.79
2024-02-14T16:25:44.026Z,61.79
2024-02-14T16:28:12.575Z,61.74
2024-02-14T16:30:41.111Z,61.69
2024-02-14T16:33:11.103Z,61.73
2024-02-14T16:35:39.460Z,61.91
2024-02-14T16:38:09.172Z,61.67
2024-02-14T16:40:37.428Z,61.49
2024-02-14T16:43:07.848Z,61.84
2024-02-14T16:45:36.076Z,61.95
2024-02-14T16:48:04.312Z,62.01
2024-02-14T16:50:33.775Z,62.01
2024-02-14T16:53:01.857Z,61.59
2024-02-14T16:55:30.137Z,62.19
2024-02-14T16:58:02.525Z,61.99
2024-02-14T17:00:31.127Z,61.86
2024-02-14T17:03:08.572Z,62.03
2024-02-14T17:05:44.897Z,61.80
2024-02-14T17:08:15.968Z,61.45
2024-02-14T17:10:44.798Z,61.79
2024-02-14T17:13:14.022Z,62.08
2024-02-14T17:15:44.669Z,61.78
2024-02-14T17:18:13.104Z,62.15
2024-02-14T17:20:43.906Z,62.14
2024-02-14T17:23:15.880Z,62.32
2024-02-14T17:25:45.246Z,62.55
2024-02-14T17:28:13.403Z,62.59
2024-02-14T17:30:46.159Z,62.32
2024-02-14T17:38:07.393Z,62.47
2024-02-14T17:40:36.870Z,62.76
2024-02-14T17:43:04.964Z,62.82
2024-02-14T17:45:37.157Z,63.03
2024-02-14T17:48:05.852Z,62.88
2024-02-14T17:50:34.249Z,63.11
2024-02-14T17:53:03.791Z,62.73
2024-02-14T17:55:32.265Z,62.85
2024-02-14T17:58:03.456Z,62.75
2024-02-14T18:00:31.791Z,63.00
2024-02-14T18:03:00.199Z,62.64
2024-02-14T18:05:28.746Z,62.98
2024-02-14T18:07:56.859Z,63.06
2024-02-14T18:10:27.163Z,63.06
2024-02-14T18:12:55.866Z,63.20
2024-02-14T18:15:25.978Z,63.38
2024-02-14T18:17:54.413Z,62.96
2024-02-14T18:20:22.529Z,63.37
2024-02-14T18:22:50.467Z,63.24
2024-02-14T18:25:18.537Z,63.41
2024-02-14T18:27:46.762Z,63.61
2024-02-14T18:30:15.429Z,63.70
2024-02-14T18:32:44.962Z,63.65
2024-02-14T18:35:13.171Z,63.65
2024-02-14T18:37:41.221Z,64.13
2024-02-14T18:40:10.156Z,63.96
2024-02-14T18:42:38.210Z,63.98
2024-02-14T18:45:08.294Z,63.97
2024-02-14T18:47:37.765Z,63.82
2024-02-14T18:50:13.070Z,64.07
2024-02-14T18:52:42.144Z,64.04
2024-02-14T18:55:13.017Z,64.60
2024-02-14T18:57:41.715Z,64.63
2024-02-14T19:00:12.434Z,64.61
2024-02-14T19:02:44.277Z,64.82
2024-02-14T19:05:16.325Z,64.74
2024-02-14T19:07:44.735Z,65.01
2024-02-14T19:10:21.265Z,64.88
2024-02-14T19:12:49.951Z,65.24
2024-02-14T19:15:19.564Z,64.71
2024-02-14T19:17:49.827Z,64.60
2024-02-14T19:20:19.876Z,64.46
2024-02-14T19:22:48.703Z,64.54
2024-02-14T19:25:17.051Z,64.91
2024-02-14T19:27:46.161Z,64.67
2024-02-14T19:30:18.516Z,65.31
2024-02-14T19:32:47.233Z,64.93
2024-02-14T19:35:15.381Z,65.39
2024-02-14T19:37:44.848Z,65.27
2024-02-14T19:40:14.057Z,65.44
2024-02-14T19:42:42.583Z,65.26
2024-02-14T19:45:12.118Z,65.52
2024-02-14T19:47:39.675Z,65.58
2024-02-14T19:50:10.879Z,65.92
2024-02-14T19:52:39.509Z,66.23
2024-02-14T19:55:11.541Z,65.94
2024-02-14T19:57:40.111Z,66.05
2024-02-14T20:00:11.018Z,65.98
2024-02-14T20:02:42.956Z,65.87
2024-02-14T20:05:13.044Z,65.57
2024-02-14T20:07:44.219Z,65.70
2024-02-14T20:10:13.875Z,65.91
2024-02-14T20:12:42.344Z,66.41
2024-02-14T20:15:12.652Z,66.54
2024-02-14T20:17:41.364Z,66.42
2024-02-14T20:20:10.336Z,67.01
2024-02-14T20:22:38.764Z,66.36
2024-02-14T20:25:07.171Z,66.95
2024-02-14T20:27:36.586Z,67.18
2024-02-14T20:30:08.313Z,67.34
2024-02-14T20:32:38.889Z,66.94
2024-02-14T20:35:08.160Z,67.37
2024-02-14T20:37:36.389Z,67.44
2024-02-14T20:40:04.941Z,67.56
2024-02-14T20:42:32.880Z,68.08
2024-02-14T20:45:02.521Z,67.81
2024-02-14T20:47:32.915Z,68.50
2024-02-14T20:50:02.156Z,69.26
2024-02-14T20:52:30.471Z,69.13
2024-02-14T20:54:59.508Z,69.05
2024-02-14T20:57:27.568Z,68.83
2024-02-14T20:59:55.791Z,68.95
2024-02-14T21:02:25.289Z,68.66
2024-02-14T21:04:53.352Z,68.70
2024-02-14T21:07:21.599Z,69.44
2024-02-14T21:09:49.596Z,69.09
2024-02-14T21:12:21.195Z,69.13
2024-02-14T21:14:49.414Z,69.34
2024-02-14T21:17:17.555Z,69.23
2024-02-14T21:19:47.569Z,69.33
2024-02-14T21:22:15.587Z,69.60
2024-02-14T21:24:43.677Z,69.48
2024-02-14T21:27:11.980Z,69.44
2024-02-14T21:29:40.035Z,69.23
2024-02-14T21:32:08.499Z,69.79
2024-02-14T21:34:36.986Z,69.37
2024-02-14T21:37:08.788Z,69.59
2024-02-14T21:39:37.048Z,69.63
2024-02-14T21:42:09.148Z,69.82
2024-02-14T21:44:39.680Z,70.39
2024-02-14T21:47:11.529Z,69.86
2024-02-14T21:49:40.064Z,70.00
2024-02-14T21:52:09.399Z,69.70
2024-02-14T21:54:40.371Z,69.63
2024-02-14T21:57:08.584Z,69.58
2024-02-14T21:59:36.603Z,69.87
2024-02-14T22:02:04.814Z,69.57
2024-02-14T22:04:33.645Z,69.70
2024-02-14T22:07:04.050Z,69.46
2024-02-14T22:09:33.438Z,69.69
2024-02-14T22:12:01.535Z,69.86
2024-02-14T22:14:30.142Z,69.94
2024-02-14T22:16:59.477Z,69.55
2024-02-14T22:19:28.652Z,69.59
2024-02-14T22:21:56.701Z,69.70
2024-02-14T22:24:27.596Z,69.85
2024-02-14T22:26:57.020Z,69.68
2024-02-14T22:29:25.329Z,70.12
2024-02-14T22:31:53.537Z,70.11
2024-02-14T22:34:22.261Z,69.79
2024-02-14T22:36:50.490Z,69.81
2024-02-14T22:39:18.594Z,69.88
2024-02-14T22:41:47.358Z,70.28
2024-02-14T22:44:18.461Z,69.71
2024-02-14T22:46:46.693Z,70.04
2024-02-14T22:49:14.831Z,69.67
2024-02-14T22:51:45.196Z,69.78
2024-02-14T22:54:14.597Z,69.79
2024-02-14T22:56:43.163Z,69.97
2024-02-14T22:59:11.918Z,70.59
2024-02-14T23:01:41.520Z,70.22
2024-02-14T23:04:09.594Z,70.31
2024-02-14T23:06:38.959Z,70.33
2024-02-14T23:09:07.103Z,70.74
2024-02-14T23:11:39.545Z,70.53
2024-02-14T23:14:07.591Z,70.46
2024-02-14T23:16:37.238Z,70.76
2024-02-14T23:19:08.765Z,70.90
2024-02-14T23:21:37.633Z,70.53
2024-02-14T23:24:06.475Z,70.63
2024-02-14T23:26:34.596Z,70.55
2024-02-14T23:29:02.643Z,70.23
2024-02-14T23:31:31.362Z,70.74
2024-02-14T23:34:01.034Z,70.24
2024-02-14T23:36:31.461Z,70.30
2024-02-14T23:38:58.503Z,70.27
2024-02-14T23:41:26.642Z,70.27
2024-02-14T23:43:54.816Z,70.51
2024-02-14T23:46:23.010Z,71.51
2024-02-14T23:48:51.123Z,71.22
2024-02-14T23:51:22.001Z,71.39
2024-02-14T23:53:51.418Z,71.11
2024-02-14T23:56:19.381Z,71.19
2024-02-14T23:58:47.739Z,71.21
